George Bush Intercontinental Houston Airport
KIAH : now visible

Airfield :











YOU CAN JOIN US ON...

 
LOGIN :

Register | Disclaimer

   EN    FR    IT 

 









Legend :    VFR   Marginal VFR   IFR   Intensive IFR   Very Intensive IFR
Visi :
Ceiling :
>= 8 km
>= 3000ft
5 to 8 km
1000 to 3000 ft
1500m to 5 km
500 to 1000 ft
800 to 1500m
200 to 500 ft
< 800m
< 200 ft
Symbols :   Thunderstorms  Fog  Heavy snow  Heavy precipitations  Wind > 20 kt






- Airport Elevation : 97 ft
- IATA code : IAH


KIAH - George Bush Intercontinental Houston

CURRENT METAR :
  • 101253Z VRB04KT 10SM SCT010 BKN022 BKN200 BKN250 20/18 A3003 RMK AO2 RAB50E52 PRESRR SLP170 P0000 T02000178

EXPIRED METARs :
  • 101159Z 04005KT 10SM SCT010 BKN022 BKN200 BKN250 19/18 A2998 RMK AO2 T01940178
  • 101053Z 02006KT 10SM FEW008 FEW015 BKN120 BKN250 19/18 A2996 RMK AO2 SLP143 T01940178 $
  • 101048Z 02006KT 10SM FEW008 SCT014 BKN120 BKN250 19/18 A2995 RMK AO2 $

TAF KIAH
Valid from the 10 at 12:00 until the 11 at 18:00 UTC


101222Z 1012/1118 04008KT P6SM SCT010 BKN022 BKN250
FM101600 07012KT P6SM BKN050
FM110100 10005KT P6SM SCT250
FM111200 08005KT P6SM VCSH BKN060
FM111500 09006KT P6SM VCSH BKN012



MET'MAP, your aeronautical weather chart ! - Copyright ORBIFLY December 2007 - Disclaimer

ORBIFLY MET'MAP TEAM :

Programming & Development : Alexandra Zaïnal
Concept & original design : Baudouin d'Aumeries
Assistance for programming : Marc-Olivier Méhu
Technical & hardware support : Manuel Goepfert

Contact : metmap@orbifly.com




SOURCES & CREDITS :

   NOAA       Earth
Advisory